^^
Station Historical Data
Daily Summary for July 5, 2021 Units:  English    Metric   Both
Daily Weekly Monthly Yearly
  High: Low: Average:
Temperature: 84.3 °F 74.4 °F 78.5 °F
Dew Point: 74.1 °F 68 °F 71.5 °F
Humidity: 86% 69% 79%
Wind Speed: 7mph 2mph 4.2mph
Wind Gust: 12mph - -
Wind- - SSW
Pressure: 29.85 in 29.76 in -
Precipitation: 0.00 in    
 
 
Tabular Data for July 5, 2021
Time Temperature Dew Point Pressure Wind Wind Speed Wind Gust Humidity Rainfall Rate (Hourly) solar
00:00 78.9 °F 73.3 °F 29.83 in WSW 3 mph 3 mph 83% 0.00 in 0 W/m2
00:05 78.7 °F 73.1 °F 29.83 in South 3 mph 4 mph 83% 0.00 in 0 W/m2
00:10 78.6 °F 73.4 °F 29.83 in SW 3 mph 3 mph 84% 0.00 in 0 W/m2
00:15 78.4 °F 72.8 °F 29.83 in South 3 mph 3 mph 83% 0.00 in 0 W/m2
00:20 78.3 °F 72.7 °F 29.83 in SSW 3 mph 3 mph 83% 0.00 in 0 W/m2
00:25 78.2 °F 72.6 °F 29.83 in West 3 mph 3 mph 83% 0.00 in 0 W/m2
00:30 78 °F 72.1 °F 29.83 in South 3 mph 5 mph 82% 0.00 in 0 W/m2
00:35 78 °F 72.4 °F 29.83 in SSW 3 mph 5 mph 83% 0.00 in 0 W/m2
00:40 77.8 °F 72.2 °F 29.84 in West 3 mph 3 mph 83% 0.00 in 0 W/m2
00:45 77.7 °F 72.1 °F 29.83 in SW 3 mph 3 mph 83% 0.00 in 0 W/m2
00:50 77.6 °F 72 °F 29.84 in WSW 3 mph 3 mph 83% 0.00 in 0 W/m2
00:55 77.4 °F 71.8 °F 29.84 in South 3 mph 3 mph 83% 0.00 in 0 W/m2
01:00 77.2 °F 71.3 °F 29.84 in SW 3 mph 3 mph 82% 0.00 in 0 W/m2
01:05 77.1 °F 71.2 °F 29.83 in WSW 3 mph 3 mph 82% 0.00 in 0 W/m2
01:10 77 °F 70.7 °F 29.83 in SSW 3 mph 3 mph 81% 0.00 in 0 W/m2
01:15 76.8 °F 70.5 °F 29.83 in West 3 mph 3 mph 81% 0.00 in 0 W/m2
01:20 76.7 °F 70.4 °F 29.83 in WSW 3 mph 3 mph 81% 0.00 in 0 W/m2
01:25 76.5 °F 70.2 °F 29.83 in WSW 3 mph 5 mph 81% 0.00 in 0 W/m2
01:30 76.4 °F 70.1 °F 29.83 in SSE 3 mph 3 mph 81% 0.00 in 0 W/m2
01:35 76.3 °F 70 °F 29.83 in NNE 3 mph 3 mph 81% 0.00 in 0 W/m2
01:40 76.1 °F 69.5 °F 29.83 in SSE 3 mph 3 mph 80% 0.00 in 0 W/m2
01:45 75.9 °F 68.5 °F 29.83 in WNW 3 mph 8 mph 78% 0.00 in 0 W/m2
01:50 75.7 °F 68 °F 29.83 in WSW 3 mph 3 mph 77% 0.00 in 0 W/m2
01:55 75.6 °F 68.3 °F 29.83 in WSW 3 mph 4 mph 78% 0.00 in 0 W/m2
02:00 75.6 °F 68.3 °F 29.83 in SSW 3 mph 3 mph 78% 0.00 in 0 W/m2
02:05 75.6 °F 68.6 °F 29.83 in WNW 3 mph 3 mph 79% 0.00 in 0 W/m2
02:10 75.6 °F 69 °F 29.83 in West 3 mph 6 mph 80% 0.00 in 0 W/m2
02:15 75.6 °F 69.4 °F 29.83 in SW 3 mph 6 mph 81% 0.00 in 0 W/m2
02:20 75.5 °F 69.3 °F 29.83 in WNW 2 mph 2 mph 81% 0.00 in 0 W/m2
02:25 75.4 °F 69.5 °F 29.83 in SE 2 mph 2 mph 82% 0.00 in 0 W/m2
02:30 75.4 °F 69.5 °F 29.83 in West 2 mph 4 mph 82% 0.00 in 0 W/m2
02:35 75.4 °F 69.2 °F 29.83 in SSW 3 mph 4 mph 81% 0.00 in 0 W/m2
02:40 75.5 °F 69.6 °F 29.83 in SSW 3 mph 3 mph 82% 0.00 in 0 W/m2
02:45 75.5 °F 69.6 °F 29.83 in South 2 mph 3 mph 82% 0.00 in 0 W/m2
02:50 75.5 °F 69.6 °F 29.83 in SSW 2 mph 4 mph 82% 0.00 in 0 W/m2
02:55 75.5 °F 68.9 °F 29.83 in South 2 mph 4 mph 80% 0.00 in 0 W/m2
03:00 75.5 °F 68.9 °F 29.83 in SW 3 mph 3 mph 80% 0.00 in 0 W/m2
03:05 75.6 °F 69.4 °F 29.83 in SW 2 mph 3 mph 81% 0.00 in 0 W/m2
03:10 75.6 °F 69 °F 29.83 in SW 2 mph 2 mph 80% 0.00 in 0 W/m2
03:15 75.6 °F 69.4 °F 29.83 in SSE 2 mph 3 mph 81% 0.00 in 0 W/m2
03:20 75.6 °F 69 °F 29.83 in SW 2 mph 2 mph 80% 0.00 in 0 W/m2
03:25 75.7 °F 69.1 °F 29.83 in WSW 2 mph 5 mph 80% 0.00 in 0 W/m2
03:30 75.7 °F 69.1 °F 29.83 in SSW 2 mph 3 mph 80% 0.00 in 0 W/m2
03:35 75.8 °F 69.2 °F 29.83 in SSW 2 mph 3 mph 80% 0.00 in 0 W/m2
03:40 75.8 °F 69.2 °F 29.83 in SE 2 mph 2 mph 80% 0.00 in 0 W/m2
03:45 75.8 °F 69.2 °F 29.83 in WSW 3 mph 3 mph 80% 0.00 in 0 W/m2
03:50 75.7 °F 69.1 °F 29.83 in SE 3 mph 3 mph 80% 0.00 in 0 W/m2
03:55 75.8 °F 69.2 °F 29.83 in South 2 mph 3 mph 80% 0.00 in 0 W/m2
04:00 75.8 °F 69.2 °F 29.83 in South 2 mph 2 mph 80% 0.00 in 0 W/m2
04:05 75.8 °F 69.2 °F 29.83 in SW 2 mph 2 mph 80% 0.00 in 0 W/m2
04:10 75.8 °F 68.8 °F 29.83 in SW 2 mph 2 mph 79% 0.00 in 0 W/m2
04:15 75.8 °F 68.8 °F 29.82 in SSW 2 mph 2 mph 79% 0.00 in 0 W/m2
04:20 75.8 °F 68.8 °F 29.82 in SSW 2 mph 2 mph 79% 0.00 in 0 W/m2
04:25 75.7 °F 68.4 °F 29.82 in South 2 mph 3 mph 78% 0.00 in 0 W/m2
04:30 75.7 °F 68.4 °F 29.82 in West 3 mph 3 mph 78% 0.00 in 0 W/m2
04:35 75.7 °F 68.7 °F 29.82 in SW 2 mph 3 mph 79% 0.00 in 0 W/m2
04:40 75.7 °F 68.7 °F 29.82 in SSW 3 mph 3 mph 79% 0.00 in 0 W/m2
04:45 75.6 °F 69 °F 29.82 in SSW 3 mph 4 mph 80% 0.00 in 0 W/m2
04:50 75.5 °F 68.5 °F 29.82 in SW 3 mph 3 mph 79% 0.00 in 0 W/m2
04:55 75.4 °F 68.8 °F 29.82 in South 3 mph 5 mph 80% 0.00 in 0 W/m2
05:00 75.4 °F 68.8 °F 29.83 in South 3 mph 3 mph 80% 0.00 in 0 W/m2
05:05 75.4 °F 69.2 °F 29.82 in SSW 3 mph 3 mph 81% 0.00 in 0 W/m2
05:10 75.3 °F 69.1 °F 29.82 in South 3 mph 4 mph 81% 0.00 in 0 W/m2
05:15 75.2 °F 69 °F 29.82 in SW 3 mph 4 mph 81% 0.00 in 0 W/m2
05:20 75.1 °F 68.9 °F 29.82 in SSW 3 mph 3 mph 81% 0.00 in 0 W/m2
05:25 74.9 °F 69 °F 29.82 in West 3 mph 3 mph 82% 0.00 in 0 W/m2
05:30 74.9 °F 69 °F 29.82 in SW 3 mph 5 mph 82% 0.00 in 0 W/m2
05:35 74.8 °F 68.9 °F 29.82 in SW 3 mph 5 mph 82% 0.00 in 0 W/m2
05:40 74.8 °F 68.9 °F 29.82 in SW 3 mph 3 mph 82% 0.00 in 0 W/m2
05:45 74.8 °F 69.3 °F 29.82 in SSW 3 mph 4 mph 83% 0.00 in 0 W/m2
05:50 74.8 °F 69.3 °F 29.82 in South 3 mph 3 mph 83% 0.00 in 0 W/m2
05:55 74.8 °F 69.3 °F 29.82 in SE 3 mph 3 mph 83% 0.00 in 0 W/m2
06:00 74.8 °F 69.3 °F 29.82 in South 3 mph 4 mph 83% 0.00 in 5 W/m2
06:05 74.8 °F 69.3 °F 29.82 in SW 3 mph 8 mph 83% 0.00 in 7 W/m2
06:10 74.8 °F 69.6 °F 29.82 in South 3 mph 3 mph 84% 0.00 in 9 W/m2
06:15 74.8 °F 69.3 °F 29.82 in SW 3 mph 3 mph 83% 0.00 in 11 W/m2
06:20 74.8 °F 69.3 °F 29.82 in West 3 mph 3 mph 83% 0.00 in 12 W/m2
06:25 74.8 °F 69.3 °F 29.82 in South 3 mph 6 mph 83% 0.00 in 14 W/m2
06:30 74.8 °F 69.3 °F 29.82 in WSW 3 mph 3 mph 83% 0.00 in 16 W/m2
06:35 74.7 °F 69.2 °F 29.82 in SW 3 mph 5 mph 83% 0.00 in 19 W/m2
06:40 74.8 °F 69.3 °F 29.82 in SW 3 mph 3 mph 83% 0.00 in 23 W/m2
06:45 74.8 °F 69.6 °F 29.82 in South 3 mph 3 mph 84% 0.00 in 26 W/m2
06:50 74.8 °F 69.3 °F 29.82 in SSW 3 mph 3 mph 83% 0.00 in 32 W/m2
06:55 74.8 °F 69.6 °F 29.82 in SW 3 mph 10 mph 84% 0.00 in 33 W/m2
07:00 74.8 °F 69.6 °F 29.82 in SSW 4 mph 4 mph 84% 0.00 in 37 W/m2
07:05 74.8 °F 69.6 °F 29.82 in SSW 4 mph 4 mph 84% 0.00 in 39 W/m2
07:10 74.7 °F 69.5 °F 29.82 in ESE 3 mph 3 mph 84% 0.00 in 42 W/m2
07:15 74.7 °F 69.5 °F 29.82 in South 3 mph 3 mph 84% 0.00 in 44 W/m2
07:20 74.7 °F 69.9 °F 29.82 in SW 3 mph 3 mph 85% 0.00 in 47 W/m2
07:25 74.7 °F 69.9 °F 29.82 in SSW 3 mph 3 mph 85% 0.00 in 54 W/m2
07:30 74.6 °F 69.4 °F 29.82 in SSW 2 mph 3 mph 84% 0.00 in 58 W/m2
07:35 74.6 °F 69.4 °F 29.83 in SW 3 mph 5 mph 84% 0.00 in 69 W/m2
07:40 74.5 °F 69.7 °F 29.83 in SSE 3 mph 3 mph 85% 0.00 in 86 W/m2
07:45 74.5 °F 69.7 °F 29.83 in SSW 3 mph 5 mph 85% 0.00 in 97 W/m2
07:50 74.4 °F 69.6 °F 29.83 in South 3 mph 3 mph 85% 0.00 in 202 W/m2
07:55 74.4 °F 69.6 °F 29.83 in SSW 3 mph 3 mph 85% 0.00 in 151 W/m2
08:00 74.4 °F 69.6 °F 29.83 in SSW 3 mph 3 mph 85% 0.00 in 151 W/m2
08:05 74.5 °F 69.7 °F 29.83 in SSW 3 mph 4 mph 85% 0.00 in 167 W/m2
08:10 74.5 °F 69.7 °F 29.84 in South 3 mph 5 mph 85% 0.00 in 218 W/m2
08:15 74.5 °F 69.7 °F 29.84 in SSW 4 mph 5 mph 85% 0.00 in 253 W/m2
08:20 74.5 °F 69.7 °F 29.84 in SSW 3 mph 5 mph 85% 0.00 in 285 W/m2
08:25 74.5 °F 69.7 °F 29.84 in SSW 4 mph 5 mph 85% 0.00 in 274 W/m2
08:30 74.6 °F 69.8 °F 29.84 in ENE 4 mph 4 mph 85% 0.00 in 309 W/m2
08:35 74.5 °F 69.7 °F 29.84 in SSW 4 mph 5 mph 85% 0.00 in 327 W/m2
08:40 74.4 °F 69.6 °F 29.84 in SSW 4 mph 5 mph 85% 0.00 in 169 W/m2
08:45 74.4 °F 69.6 °F 29.85 in SSW 4 mph 5 mph 85% 0.00 in 192 W/m2
08:50 74.4 °F 69.6 °F 29.85 in South 4 mph 4 mph 85% 0.00 in 267 W/m2
08:55 74.4 °F 69.6 °F 29.85 in South 4 mph 4 mph 85% 0.00 in 315 W/m2
09:00 74.4 °F 69.6 °F 29.85 in SW 4 mph 7 mph 85% 0.00 in 297 W/m2
09:05 74.4 °F 69.6 °F 29.85 in WSW 4 mph 7 mph 85% 0.00 in 304 W/m2
09:10 74.4 °F 69.6 °F 29.85 in West 4 mph 4 mph 85% 0.00 in 265 W/m2
09:15 74.4 °F 69.9 °F 29.84 in South 4 mph 5 mph 86% 0.00 in 316 W/m2
09:20 74.4 °F 69.9 °F 29.84 in SSW 4 mph 5 mph 86% 0.00 in 369 W/m2
09:25 74.6 °F 70.1 °F 29.84 in SSW 4 mph 5 mph 86% 0.00 in 392 W/m2
09:30 74.7 °F 70.2 °F 29.84 in SSW 4 mph 5 mph 86% 0.00 in 434 W/m2
09:35 74.9 °F 70.4 °F 29.84 in SSW 4 mph 10 mph 86% 0.00 in 432 W/m2
09:40 75 °F 70.2 °F 29.84 in SW 4 mph 5 mph 85% 0.00 in 431 W/m2
09:45 75.1 °F 70.3 °F 29.84 in SSW 5 mph 5 mph 85% 0.00 in 478 W/m2
09:50 75.3 °F 70.1 °F 29.83 in SSW 4 mph 5 mph 84% 0.00 in 496 W/m2
09:55 75.4 °F 70.2 °F 29.83 in WSW 4 mph 5 mph 84% 0.00 in 510 W/m2
10:00 75.5 °F 70.3 °F 29.83 in SW 5 mph 6 mph 84% 0.00 in 524 W/m2
10:05 75.6 °F 70.4 °F 29.83 in SE 5 mph 6 mph 84% 0.00 in 534 W/m2
10:10 75.7 °F 70.5 °F 29.83 in SW 4 mph 5 mph 84% 0.00 in 548 W/m2
10:15 75.8 °F 70.3 °F 29.83 in South 4 mph 5 mph 83% 0.00 in 563 W/m2
10:20 76 °F 70.5 °F 29.83 in SSW 4 mph 6 mph 83% 0.00 in 575 W/m2
10:25 76.2 °F 70.3 °F 29.83 in SW 4 mph 6 mph 82% 0.00 in 591 W/m2
10:30 76.6 °F 71 °F 29.83 in SSW 5 mph 5 mph 83% 0.00 in 619 W/m2
10:35 76.7 °F 70.8 °F 29.83 in SW 5 mph 5 mph 82% 0.00 in 631 W/m2
10:40 76.9 °F 71 °F 29.83 in SSW 5 mph 5 mph 82% 0.00 in 643 W/m2
10:45 77 °F 70.7 °F 29.83 in SSW 5 mph 6 mph 81% 0.00 in 738 W/m2
10:50 77.3 °F 71.4 °F 29.83 in North 5 mph 5 mph 82% 0.00 in 387 W/m2
10:55 77.5 °F 71.6 °F 29.83 in SW 5 mph 6 mph 82% 0.00 in 403 W/m2
11:00 77.5 °F 70.8 °F 29.83 in SSE 5 mph 5 mph 80% 0.00 in 315 W/m2
11:05 77.4 °F 71.1 °F 29.83 in SW 5 mph 5 mph 81% 0.00 in 272 W/m2
11:10 77.4 °F 71.5 °F 29.83 in SSW 5 mph 5 mph 82% 0.00 in 260 W/m2
11:15 77.6 °F 71.7 °F 29.83 in SE 4 mph 5 mph 82% 0.00 in 564 W/m2
11:20 77.8 °F 71.5 °F 29.82 in South 4 mph 6 mph 81% 0.00 in 795 W/m2
11:25 78.1 °F 71.4 °F 29.82 in SE 4 mph 6 mph 80% 0.00 in 814 W/m2
11:30 78.3 °F 71.6 °F 29.82 in SSE 4 mph 6 mph 80% 0.00 in 802 W/m2
11:35 78.5 °F 71.8 °F 29.82 in South 4 mph 6 mph 80% 0.00 in 696 W/m2
11:40 78.5 °F 71.8 °F 29.82 in East 4 mph 4 mph 80% 0.00 in 663 W/m2
11:45 78.7 °F 72 °F 29.82 in SSW 4 mph 4 mph 80% 0.00 in 728 W/m2
11:50 78.9 °F 71.8 °F 29.82 in South 4 mph 4 mph 79% 0.00 in 765 W/m2
11:55 79 °F 72.3 °F 29.81 in NE 3 mph 4 mph 80% 0.00 in 761 W/m2
12:00 79.2 °F 72.5 °F 29.81 in SSW 3 mph 4 mph 80% 0.00 in 782 W/m2
12:05 79.4 °F 72.3 °F 29.81 in SSW 3 mph 6 mph 79% 0.00 in 766 W/m2
12:10 79.6 °F 72.1 °F 29.80 in SW 4 mph 6 mph 78% 0.00 in 772 W/m2
12:15 79.9 °F 72.4 °F 29.81 in SW 5 mph 7 mph 78% 0.00 in 784 W/m2
12:20 80.2 °F 72.7 °F 29.81 in SW 5 mph 5 mph 78% 0.00 in 789 W/m2
12:25 80.4 °F 72.5 °F 29.80 in SE 5 mph 5 mph 77% 0.00 in 784 W/m2
12:30 80.6 °F 72.7 °F 29.80 in SSW 5 mph 7 mph 77% 0.00 in 782 W/m2
12:35 80.6 °F 72.3 °F 29.80 in SSW 5 mph 8 mph 76% 0.00 in 726 W/m2
12:40 80.5 °F 72.2 °F 29.81 in South 5 mph 7 mph 76% 0.00 in 605 W/m2
12:45 80.7 °F 72.4 °F 29.80 in South 6 mph 7 mph 76% 0.00 in 754 W/m2
12:50 80.9 °F 72.6 °F 29.80 in SSW 5 mph 5 mph 76% 0.00 in 828 W/m2
12:55 81 °F 73.1 °F 29.81 in SSW 5 mph 6 mph 77% 0.00 in 835 W/m2
13:00 81.2 °F 72.5 °F 29.81 in SW 6 mph 7 mph 75% 0.00 in 844 W/m2
13:05 81 °F 73.1 °F 29.80 in SSW 6 mph 7 mph 77% 0.00 in 847 W/m2
13:10 81.1 °F 73.2 °F 29.81 in SW 5 mph 6 mph 77% 0.00 in 840 W/m2
13:15 81.2 °F 73.3 °F 29.81 in SW 6 mph 7 mph 77% 0.00 in 856 W/m2
13:20 81.3 °F 73.8 °F 29.81 in SSW 5 mph 5 mph 78% 0.00 in 853 W/m2
13:25 81.5 °F 73.2 °F 29.81 in SW 5 mph 5 mph 76% 0.00 in 872 W/m2
13:30 81.3 °F 73.4 °F 29.80 in SW 5 mph 5 mph 77% 0.00 in 882 W/m2
13:35 81.6 °F 72.9 °F 29.80 in SSW 5 mph 7 mph 75% 0.00 in 907 W/m2
13:40 81.7 °F 73 °F 29.80 in SSW 5 mph 7 mph 75% 0.00 in 708 W/m2
13:45 81.6 °F 72.9 °F 29.80 in SW 6 mph 9 mph 75% 0.00 in 719 W/m2
13:50 81.5 °F 73.6 °F 29.80 in South 5 mph 5 mph 77% 0.00 in 751 W/m2
13:55 81.6 °F 73.3 °F 29.79 in SSW 5 mph 6 mph 76% 0.00 in 860 W/m2
14:00 81.6 °F 73.7 °F 29.80 in WSW 5 mph 6 mph 77% 0.00 in 455 W/m2
14:05 81.5 °F 73.2 °F 29.79 in NE 5 mph 6 mph 76% 0.00 in 492 W/m2
14:10 81.6 °F 73.7 °F 29.80 in South 5 mph 5 mph 77% 0.00 in 622 W/m2
14:15 81.9 °F 73.6 °F 29.80 in South 4 mph 6 mph 76% 0.00 in 772 W/m2
14:20 82.1 °F 73.4 °F 29.79 in East 4 mph 4 mph 75% 0.00 in 893 W/m2
14:25 82.4 °F 73.7 °F 29.79 in East 4 mph 4 mph 75% 0.00 in 840 W/m2
14:30 82.6 °F 73.5 °F 29.79 in East 5 mph 5 mph 74% 0.00 in 888 W/m2
14:35 82.7 °F 73.6 °F 29.78 in South 5 mph 8 mph 74% 0.00 in 870 W/m2
14:40 82.8 °F 73.3 °F 29.78 in SSW 5 mph 5 mph 73% 0.00 in 1000 W/m2
14:45 83.1 °F 73.1 °F 29.77 in SSW 6 mph 6 mph 72% 0.00 in 912 W/m2
14:50 83.2 °F 72.8 °F 29.77 in SSW 7 mph 8 mph 71% 0.00 in 962 W/m2
14:55 83.2 °F 73.2 °F 29.77 in South 7 mph 8 mph 72% 0.00 in 615 W/m2
15:00 83.1 °F 72.7 °F 29.77 in South 7 mph 9 mph 71% 0.00 in 438 W/m2
15:05 82.9 °F 72.9 °F 29.77 in SW 7 mph 9 mph 72% 0.00 in 343 W/m2
15:10 82.8 °F 72.4 °F 29.77 in SSW 7 mph 7 mph 71% 0.00 in 417 W/m2
15:15 82.8 °F 72.4 °F 29.76 in South 7 mph 7 mph 71% 0.00 in 427 W/m2
15:20 82.9 °F 73.4 °F 29.77 in SW 7 mph 7 mph 73% 0.00 in 601 W/m2
15:25 83.1 °F 73.5 °F 29.77 in SW 6 mph 7 mph 73% 0.00 in 629 W/m2
15:30 82.9 °F 73.4 °F 29.77 in SW 6 mph 7 mph 73% 0.00 in 531 W/m2
15:35 83 °F 73.4 °F 29.77 in SW 6 mph 7 mph 73% 0.00 in 807 W/m2
15:40 82.9 °F 73.4 °F 29.77 in South 6 mph 7 mph 73% 0.00 in 814 W/m2
15:45 83.2 °F 73.2 °F 29.77 in SW 6 mph 7 mph 72% 0.00 in 800 W/m2
15:50 83.5 °F 73.5 °F 29.77 in WSW 6 mph 11 mph 72% 0.00 in 793 W/m2
15:55 83.6 °F 74 °F 29.77 in SSW 6 mph 11 mph 73% 0.00 in 788 W/m2
16:00 83.6 °F 73.6 °F 29.77 in SSW 6 mph 9 mph 72% 0.00 in 796 W/m2
16:05 83.7 °F 73.3 °F 29.77 in South 6 mph 9 mph 71% 0.00 in 798 W/m2
16:10 83.9 °F 73.1 °F 29.77 in SSW 7 mph 7 mph 70% 0.00 in 803 W/m2
16:15 84.1 °F 72.8 °F 29.77 in SSW 7 mph 7 mph 69% 0.00 in 784 W/m2
16:20 84 °F 73.2 °F 29.77 in SSW 7 mph 7 mph 70% 0.00 in 770 W/m2
16:25 84 °F 73.2 °F 29.77 in South 7 mph 7 mph 70% 0.00 in 772 W/m2
16:30 84 °F 73.6 °F 29.77 in South 7 mph 7 mph 71% 0.00 in 763 W/m2
16:35 84.3 °F 73.9 °F 29.78 in WSW 7 mph 12 mph 71% 0.00 in 740 W/m2
16:40 84.3 °F 73.4 °F 29.77 in SSW 6 mph 6 mph 70% 0.00 in 728 W/m2
16:45 84.2 °F 72.9 °F 29.78 in SSW 7 mph 7 mph 69% 0.00 in 719 W/m2
16:50 84.2 °F 72.9 °F 29.77 in SSW 7 mph 7 mph 69% 0.00 in 715 W/m2
16:55 84.1 °F 72.8 °F 29.78 in WSW 6 mph 12 mph 69% 0.00 in 360 W/m2
17:00 84 °F 73.2 °F 29.79 in WSW 7 mph 7 mph 70% 0.00 in 197 W/m2
17:05 83.7 °F 73.7 °F 29.79 in SW 6 mph 7 mph 72% 0.00 in 163 W/m2
17:10 83.2 °F 73.6 °F 29.79 in South 6 mph 6 mph 73% 0.00 in 123 W/m2
17:15 82.9 °F 73.4 °F 29.79 in WSW 6 mph 6 mph 73% 0.00 in 81 W/m2
17:20 82.6 °F 73.5 °F 29.78 in SSW 6 mph 6 mph 74% 0.00 in 70 W/m2
17:25 82.3 °F 73.2 °F 29.78 in WSW 6 mph 6 mph 74% 0.00 in 54 W/m2
17:30 82.1 °F 73.4 °F 29.78 in WSW 6 mph 6 mph 75% 0.00 in 67 W/m2
17:35 81.8 °F 73.5 °F 29.78 in SW 6 mph 7 mph 76% 0.00 in 72 W/m2
17:40 81.7 °F 73.4 °F 29.78 in SSW 6 mph 8 mph 76% 0.00 in 83 W/m2
17:45 81.6 °F 73.3 °F 29.78 in SSW 6 mph 8 mph 76% 0.00 in 102 W/m2
17:50 81.6 °F 72.9 °F 29.78 in WSW 6 mph 7 mph 75% 0.00 in 125 W/m2
17:55 81.6 °F 72.9 °F 29.78 in SW 6 mph 7 mph 75% 0.00 in 195 W/m2
18:00 81.7 °F 73.4 °F 29.78 in SSW 6 mph 9 mph 76% 0.00 in 332 W/m2
18:05 81.8 °F 73.5 °F 29.78 in South 5 mph 9 mph 76% 0.00 in 406 W/m2
18:10 81.8 °F 73.1 °F 29.78 in SSW 5 mph 7 mph 75% 0.00 in 339 W/m2
18:15 81.9 °F 73.2 °F 29.78 in SW 6 mph 7 mph 75% 0.00 in 320 W/m2
18:20 82 °F 73.3 °F 29.78 in SSE 5 mph 6 mph 75% 0.00 in 388 W/m2
18:25 81.9 °F 73.2 °F 29.78 in SSW 6 mph 8 mph 75% 0.00 in 392 W/m2
18:30 81.9 °F 73.6 °F 29.78 in SW 6 mph 6 mph 76% 0.00 in 369 W/m2
18:35 81.9 °F 73.6 °F 29.78 in SW 6 mph 6 mph 76% 0.00 in 316 W/m2
18:40 81.8 °F 73.5 °F 29.78 in SW 6 mph 7 mph 76% 0.00 in 276 W/m2
18:45 81.8 °F 73.9 °F 29.78 in SSW 6 mph 7 mph 77% 0.00 in 316 W/m2
18:50 81.7 °F 73.8 °F 29.78 in SSW 6 mph 7 mph 77% 0.00 in 265 W/m2
18:55 81.6 °F 74.1 °F 29.78 in West 5 mph 8 mph 78% 0.00 in 209 W/m2
19:00 81.6 °F 73.7 °F 29.77 in SW 6 mph 6 mph 77% 0.00 in 250 W/m2
19:05 81.5 °F 74 °F 29.77 in East 6 mph 6 mph 78% 0.00 in 232 W/m2
19:10 81.5 °F 74 °F 29.77 in South 6 mph 6 mph 78% 0.00 in 237 W/m2
19:15 81.3 °F 73.4 °F 29.78 in WSW 6 mph 6 mph 77% 0.00 in 230 W/m2
19:20 81.3 °F 73.8 °F 29.77 in SSW 6 mph 6 mph 78% 0.00 in 269 W/m2
19:25 81.3 °F 73.8 °F 29.77 in SW 6 mph 8 mph 78% 0.00 in 241 W/m2
19:30 81.3 °F 73.8 °F 29.77 in SSW 6 mph 6 mph 78% 0.00 in 232 W/m2
19:35 81.2 °F 73.7 °F 29.77 in West 6 mph 8 mph 78% 0.00 in 218 W/m2
19:40 81.1 °F 73.6 °F 29.77 in West 5 mph 6 mph 78% 0.00 in 190 W/m2
19:45 81 °F 73.5 °F 29.76 in SSW 6 mph 6 mph 78% 0.00 in 179 W/m2
19:50 80.9 °F 73.4 °F 29.76 in WNW 6 mph 6 mph 78% 0.00 in 160 W/m2
19:55 80.8 °F 73.7 °F 29.77 in SSW 6 mph 6 mph 79% 0.00 in 134 W/m2
20:00 80.7 °F 73.6 °F 29.77 in SSW 6 mph 8 mph 79% 0.00 in 77 W/m2
20:05 80.7 °F 73.6 °F 29.77 in SSE 6 mph 8 mph 79% 0.00 in 54 W/m2
20:10 80.5 °F 73 °F 29.78 in SSW 5 mph 5 mph 78% 0.00 in 39 W/m2
20:15 80.5 °F 73.4 °F 29.79 in SW 5 mph 5 mph 79% 0.00 in 30 W/m2
20:20 80.5 °F 73.4 °F 29.79 in South 5 mph 5 mph 79% 0.00 in 21 W/m2
20:25 80.2 °F 73.1 °F 29.79 in SW 5 mph 5 mph 79% 0.00 in 18 W/m2
20:30 80.1 °F 73.4 °F 29.79 in WSW 5 mph 6 mph 80% 0.00 in 16 W/m2
20:35 80.1 °F 73.4 °F 29.78 in SW 4 mph 6 mph 80% 0.00 in 14 W/m2
20:40 80 °F 73.6 °F 29.78 in WSW 5 mph 6 mph 81% 0.00 in 14 W/m2
20:45 79.9 °F 73.2 °F 29.78 in SW 5 mph 6 mph 80% 0.00 in 12 W/m2
20:50 79.9 °F 73.2 °F 29.78 in SW 6 mph 6 mph 80% 0.00 in 12 W/m2
20:55 80 °F 72.9 °F 29.78 in WSW 6 mph 6 mph 79% 0.00 in 11 W/m2
21:00 80.1 °F 73.4 °F 29.78 in West 6 mph 9 mph 80% 0.00 in 9 W/m2
21:10 79.8 °F 72.7 °F 29.80 in WNW 5 mph 5 mph 79% 0.00 in 5 W/m2
21:15 79.8 °F 72.7 °F 29.80 in WSW 4 mph 5 mph 79% 0.00 in 0 W/m2
21:20 79.8 °F 72.7 °F 29.82 in WNW 3 mph 5 mph 79% 0.00 in 0 W/m2
21:25 79.7 °F 72.6 °F 29.82 in South 3 mph 5 mph 79% 0.00 in 0 W/m2
21:30 79.7 °F 72.2 °F 29.83 in WSW 4 mph 5 mph 78% 0.00 in 0 W/m2
21:35 79.6 °F 72.5 °F 29.82 in SW 3 mph 5 mph 79% 0.00 in 0 W/m2
21:40 79.6 °F 72.9 °F 29.83 in SW 3 mph 3 mph 80% 0.00 in 0 W/m2
21:45 79.6 °F 72.9 °F 29.83 in SSW 3 mph 3 mph 80% 0.00 in 0 W/m2
21:50 79.6 °F 72.9 °F 29.83 in SSW 3 mph 3 mph 80% 0.00 in 0 W/m2
21:55 79.5 °F 72.8 °F 29.83 in SW 3 mph 4 mph 80% 0.00 in 0 W/m2
22:00 79.5 °F 73.2 °F 29.83 in SW 3 mph 3 mph 81% 0.00 in 0 W/m2
22:05 79.4 °F 73.1 °F 29.83 in WSW 4 mph 4 mph 81% 0.00 in 0 W/m2
22:10 79.2 °F 72.9 °F 29.83 in SSW 4 mph 6 mph 81% 0.00 in 0 W/m2
22:15 79.1 °F 72.8 °F 29.83 in WSW 4 mph 6 mph 81% 0.00 in 0 W/m2
22:20 79.1 °F 72.8 °F 29.83 in WSW 4 mph 4 mph 81% 0.00 in 0 W/m2
22:25 79.1 °F 73.1 °F 29.83 in West 4 mph 4 mph 82% 0.00 in 0 W/m2
22:30 79 °F 73 °F 29.83 in SW 4 mph 6 mph 82% 0.00 in 0 W/m2
22:35 78.9 °F 72.9 °F 29.83 in SW 4 mph 6 mph 82% 0.00 in 0 W/m2
22:40 78.9 °F 72.6 °F 29.83 in SW 4 mph 4 mph 81% 0.00 in 0 W/m2
22:45 78.9 °F 72.6 °F 29.82 in SSW 4 mph 4 mph 81% 0.00 in 0 W/m2
22:50 79.1 °F 72.8 °F 29.82 in SW 4 mph 4 mph 81% 0.00 in 0 W/m2
22:55 79.3 °F 72.2 °F 29.82 in SSW 4 mph 4 mph 79% 0.00 in 0 W/m2
23:00 79.6 °F 72.1 °F 29.82 in WSW 4 mph 8 mph 78% 0.00 in 0 W/m2
23:05 79.8 °F 72.3 °F 29.82 in SW 4 mph 8 mph 78% 0.00 in 0 W/m2
23:10 79.8 °F 72.3 °F 29.82 in SW 5 mph 5 mph 78% 0.00 in 0 W/m2
Sand Point, Michigan, USA
Compliments of Weather Underground - 2 mb